Pike, Pennsylvania
Current Conditions -  °F | °C
As of 4:31 AM on Monday 24 Nov 2014 (Local Time) from KRDG Reporting Station
Light Rain Light Rain  
Wind Chill: 62°   Ceiling: 1500
Heat Index: 62°   Visibility: 8mi
Dew Point: 59°   Wind: 9mph
Humidity: 90%   Direction: 170°S
Pressure: 29.63"   Gusts: NA
Location:  40.3836°N, 75.7884°W
Report Text: KRDG 240931Z AUTO 17008KT 8SM -RA FEW010 BKN015 OVC021 17/15 A2963 RMK AO2 P0007 T01670150
Loading
Personal Weather Stations






























Interactive Weather Map New forecast layout! Learn more

10-Day Weather Forecast

Advertisements
Track Severe Weather on mobile